Aviation Digital Data Service (ADDS)

Output produced by METARs form (2326 UTC 17 January 2017)
found at http://www.aviationweather.gov/adds/metars/
 
KSEG 172323Z AUTO 00000KT 3/4SM BR FEW005 OVC012 02/02 A2997 RMK AO2 T00170017
KSEG 172253Z AUTO 00000KT 1 1/4SM BR FEW006 OVC012 02/02 A2998 RMK AO2 RAB2159E20 SLP157 P0000 T00170017
KSEG 172248Z AUTO 00000KT 1 1/4SM BR FEW006 OVC011 02/02 A2997 RMK AO2 RAB2159E20 P0000
KSEG 172225Z AUTO 00000KT 1SM BR SCT005 OVC011 02/02 A2998 RMK AO2 RAB2159E20 P0000 T00170017
KSEG 172214Z AUTO 00000KT 1 1/4SM -RA BR BKN005 OVC011 02/02 A2999 RMK AO2 RAB2159 P0000 T00220022
KSEG 172202Z AUTO 00000KT 1SM -RA BR BKN005 OVC011 02/02 A2998 RMK AO2 RAB2159 P0000 T00220022
KSEG 172153Z AUTO 00000KT 3/4SM BR OVC006 02/02 A2998 RMK AO2 SLP157 T00220022
KSEG 172117Z AUTO 00000KT 3/4SM BR OVC006 02/02 A2999 RMK AO2 T00220022
KSEG 172110Z AUTO 00000KT 1SM BR OVC006 02/02 A2999 RMK AO2 T00220022
KSEG 172101Z AUTO 00000KT 1 1/4SM BR OVC005 02/02 A3000 RMK AO2 T00220022
KSEG 172053Z AUTO 00000KT 1SM BR OVC005 02/02 A3000 RMK AO2 SLP161 60001 T00220022 56019
KSEG 172022Z AUTO 00000KT 1 1/4SM BR OVC005 02/02 A2998 RMK AO2 T00220022
KSEG 171953Z AUTO 00000KT 1SM BR OVC005 02/02 A3000 RMK AO2 RAB22E31 SLP162 P0000 T00220022
KSEG 171944Z AUTO 00000KT 1SM BR OVC006 02/02 A2999 RMK AO2 RAB22E31 P0000 T00220022
KSEG 171853Z AUTO 00000KT 1 3/4SM BR OVC007 02/02 A3002 RMK AO2 RAE28 SLP168 P0001 T00220017
KSEG 171758Z AUTO 00000KT 1 3/4SM -RA BR BKN007 OVC011 02/02 A3004 RMK AO2 CIG 007V010 P0001 T00220017
KSEG 171750Z AUTO 00000KT 2SM -RA BR OVC009 02/02 A3005 RMK AO2 RAB29 CIG 007V011 SLP180 P0000 60002 T00220017 10022 20000 56036
KSEG 171749Z AUTO 00000KT 2SM -RA BR OVC009 02/02 A3005 RMK AO2 RAB29 CIG 007V011 P0000
KSEG 171653Z AUTO 00000KT 1 1/2SM BR OVC012 02/02 A3009 RMK AO2 RAB35E48 SLP193 P0000 T00170017
KSEG 171612Z AUTO 00000KT 1 1/2SM BR OVC014 01/01 A3011 RMK AO2 T00110011
KSEG 171553Z AUTO 10005KT 1 1/4SM BR OVC015 01/01 A3012 RMK AO2 RAE23 PRESFR SLP203 P0000 T00110011
KSEG 171539Z AUTO 00000KT 1 3/4SM BR OVC015 01/01 A3016 RMK AO2 RAE23 P0000 T00110011
KSEG 171519Z AUTO 22003KT 2SM -RA BR OVC016 01/01 A3016 RMK AO2 P0000 T00110011
KSEG 171453Z AUTO 00000KT 1 1/2SM -RA BR OVC015 01/01 A3016 RMK AO2 SLP217 P0002 60002 T00060006 58008
KSEG 171410Z AUTO 00000KT 1 3/4SM -RA BR OVC015 01/01 A3016 RMK AO2 P0000 T00060006
KSEG 171403Z AUTO 00000KT 2SM -RA BR OVC015 01/01 A3017 RMK AO2 P0000 T00060006
KSEG 171353Z AUTO 00000KT 1 3/4SM -RA BR OVC015 01/01 A3017 RMK AO2 RAB03 SLP220 P0000 T00060006
KSEG 171345Z AUTO 00000KT 1 3/4SM -RA BR OVC015 01/01 A3017 RMK AO2 RAB03 P0000 T00060006
KSEG 171335Z AUTO 00000KT 2SM -RA BR OVC015 01/01 A3017 RMK AO2 RAB03 P0000 T00060006
KSEG 171253Z AUTO 00000KT 1 3/4SM BR OVC016 00/00 A3018 RMK AO2 SLP224 T00000000
KSEG 171242Z AUTO 00000KT 2 1/2SM BR OVC016 00/00 A3018 RMK AO2 T00000000
KSEG 171232Z AUTO 00000KT 3SM BR OVC016 00/00 A3018 RMK AO2 T00000000
KSEG 171225Z AUTO 00000KT 2 1/2SM BR OVC015 00/00 A3018 RMK AO2 T00000000
KSEG 171209Z AUTO 00000KT 3SM BR OVC015 00/00 A3018 RMK AO2 T00000000
KSEG 171200Z AUTO 00000KT 2 1/2SM BR OVC015 00/00 A3019 RMK AO2 T00000000
KSEG 171153Z AUTO 00000KT 3SM BR OVC014 00/00 A3018 RMK AO2 SLP225 60002 70002 T00000000 10011 20000 58012
KSEG 171127Z AUTO 00000KT 3SM BR OVC014 01/01 A3018 RMK AO2 T00060006
KSEG 171053Z AUTO 00000KT 3SM BR BKN015 OVC025 01/01 A3019 RMK AO2 RAE0959UPB0959E23 SLP228 P0001 T00060006
KSEG 171043Z AUTO 00000KT 3SM BR OVC015 01/01 A3020 RMK AO2 RAE0959UPB0959E23 P0001 T00060006
KSEG 170953Z AUTO 00000KT 4SM -RA BR OVC012 00/00 A3022 RMK AO2 RAB23 SLP238 P0001 T00000000
KSEG 170853Z AUTO 00000KT 6SM BR OVC014 01/M01 A3022 RMK AO2 SLP236 T00061006 58016
KSEG 170753Z AUTO 00000KT 7SM OVC013 01/00 A3024 RMK AO2 SLP246 T00060000
KSEG 170721Z AUTO 00000KT 7SM OVC013 01/M01 A3025 RMK AO2 T00061006
KSEG 170653Z AUTO 00000KT 7SM OVC016 01/M01 A3025 RMK AO2 SLP249 T00111006
KSEG 170553Z AUTO 00000KT 7SM OVC018 01/M01 A3027 RMK AO2 SLP254 60000 T00111011 10017 20011 58011
KSEG 170453Z AUTO 00000KT 7SM OVC018 01/M01 A3028 RMK AO2 SLP258 T00111011 400221106
KSEG 170353Z AUTO 19003KT 8SM BKN020 OVC035 01/M02 A3030 RMK AO2 SLP265 T00111017
KSEG 170350Z AUTO 19003KT 8SM BKN021 OVC035 01/M02 A3030 RMK AO2
KSEG 170253Z AUTO 18003KT 8SM OVC041 01/M01 A3031 RMK AO2 SLP269 60000 T00111011 58009
KSEG 170153Z AUTO 00000KT 8SM FEW025 OVC047 01/M01 A3033 RMK AO2 RAB0055E21 SLP278 P0000 T00111011
KSEG 170108Z AUTO 18004KT 8SM -RA FEW026 OVC050 01/M02 A3033 RMK AO2 RAB0055 P0000 T00111022
KSEG 170053Z AUTO 00000KT 10SM BKN026 OVC048 02/M03 A3034 RMK AO2 SLP279 T00171033
KSEG 162353Z AUTO 00000KT 10SM OVC025 02/M03 A3034 RMK AO2 SLP279 T00171028 10022 20006 58007
KSEG 162253Z AUTO 21003KT 10SM OVC025 02/M04 A3034 RMK AO2 SLP281 T00171039
KSEG 162153Z AUTO 19003KT 10SM BKN023 OVC110 02/M04 A3036 RMK AO2 SLP286 T00221039
KSEG 162053Z AUTO 19003KT 10SM OVC022 02/M03 A3036 RMK AO2 SLP286 T00221033 55011
KSEG 161953Z AUTO 16005KT 10SM OVC019 02/M04 A3036 RMK AO2 SLP286 T00171039
KSEG 161853Z AUTO 16004KT 10SM OVC020 02/M04 A3036 RMK AO2 SLP288 T00171039
KSEG 161753Z AUTO 17004KT 9SM OVC020 01/M03 A3039 RMK AO2 SLP297 I6000 T00061033 10011 21100 58028
KSEG 161742Z AUTO 00000KT 8SM BKN022 01/M03 A3039 RMK AO2 T00061033
KSEG 161653Z AUTO 00000KT 6SM HZ CLR M01/M03 A3042 RMK AO2 SLP310 T10061033
KSEG 161553Z AUTO 00000KT 5SM BR CLR M04/M05 A3047 RMK AO2 SLP324 T10391050
KSEG 161512Z AUTO 00000KT 3SM BR CLR M06/M06 A3047 RMK AO2 T10561056
KSEG 161453Z AUTO 00000KT 2 1/2SM BR CLR M07/M07 A3047 RMK AO2 SLP328 I3000 T10671067 53005
KSEG 161439Z AUTO 00000KT 2SM BR SCT002 M07/M07 A3048 RMK AO2 T10671067
KSEG 161422Z AUTO 00000KT 1 1/4SM BR OVC002 M08/M08 A3048 RMK AO2 T10781078
KSEG 161353Z AUTO 00000KT 1/4SM FZFG VV002 M08/M08 A3047 RMK AO2 SLP325 T10831083
KSEG 161253Z AUTO 00000KT 1/2SM FZFG VV001 M09/M09 A3046 RMK AO2 SLP323 I1000 T10891089
KSEG 161243Z AUTO 00000KT 1/4SM FZFG VV001 M09/M09 A3046 RMK AO2 I1000 T10941094
KSEG 161235Z AUTO 00000KT 1SM BR VV001 M09/M09 A3046 RMK AO2 T10941094
KSEG 161224Z AUTO 00000KT 2SM BR OVC001 M09/M09 A3046 RMK AO2 VIS 1 1/2V2 1/2 T10941094
KSEG 161153Z AUTO 00000KT 6SM BR OVC002 M10/M11 A3046 RMK AO2 SLP323 I6000 T11001106 11078 21106 53006
KSEG 161127Z AUTO 00000KT 6SM BR BKN003 M11/M11 A3046 RMK AO2 T11061111